Time;durP1;ratioP1;P1;durP2;ratioP2;P2;SDS_P1;SDS_P2;PMS_P1;PMS_P2;Temp;Humidity;BMP_temperature;BMP_pressure;BME280_temperature;BME280_humidity;BME280_pressure;Samples;Min_cycle;Max_cycle;Signal;HPM_P1;HPM_P2
2022/11/15 00:01:24;;;;;;;31.13;18.88;;;10.50;99.90;;;;;;4791798;29;20057;-72
2022/11/15 00:03:53;;;;;;;31.13;18.50;;;10.60;99.90;;;;;;4791513;29;20118;-72
2022/11/15 00:06:19;;;;;;;32.65;18.08;;;10.50;99.90;;;;;;4790425;30;20047;-72
2022/11/15 00:08:45;;;;;;;32.55;17.42;;;10.40;99.90;;;;;;4791485;30;20050;-72
2022/11/15 00:11:12;;;;;;;27.67;17.02;;;10.40;99.90;;;;;;4791648;29;20054;-72
2022/11/15 00:13:38;;;;;;;28.23;15.98;;;10.30;99.90;;;;;;4790431;30;20039;-72
2022/11/15 00:16:04;;;;;;;27.55;16.92;;;10.30;99.90;;;;;;4790481;30;20047;-72
2022/11/15 00:18:30;;;;;;;33.88;18.38;;;10.20;99.90;;;;;;4790930;29;20472;-73
2022/11/15 00:21:02;;;;;;;32.20;18.38;;;10.10;99.90;;;;;;4791232;29;20051;-72
2022/11/15 00:23:28;;;;;;;25.65;14.85;;;10.00;99.90;;;;;;4791516;29;20040;-72
2022/11/15 00:25:58;;;;;;;33.90;18.70;;;9.90;99.90;;;;;;4791121;29;20354;-72
2022/11/15 00:28:24;;;;;;;30.88;17.90;;;9.60;99.90;;;;;;4791201;29;20058;-72
2022/11/15 00:30:50;;;;;;;31.95;17.00;;;9.60;99.90;;;;;;4791068;30;20507;-72
2022/11/15 00:33:16;;;;;;;31.33;16.85;;;9.50;99.90;;;;;;4791099;29;20082;-73
2022/11/15 00:35:42;;;;;;;36.28;18.48;;;9.60;99.90;;;;;;4790974;30;20043;-72
2022/11/15 00:38:07;;;;;;;35.40;19.73;;;9.60;99.90;;;;;;4791306;29;20055;-73
2022/11/15 00:40:33;;;;;;;37.15;20.02;;;9.60;99.90;;;;;;4791355;29;20076;-72
2022/11/15 00:42:59;;;;;;;32.92;18.27;;;9.60;99.90;;;;;;4791284;30;20097;-72
2022/11/15 00:45:25;;;;;;;35.78;19.30;;;9.50;99.90;;;;;;4790267;30;20054;-72
2022/11/15 00:47:51;;;;;;;36.50;19.65;;;9.60;99.90;;;;;;4790665;30;20079;-72
2022/11/15 00:50:17;;;;;;;33.38;19.25;;;9.70;99.90;;;;;;4790025;30;20078;-72
2022/11/15 00:52:43;;;;;;;37.00;19.40;;;9.70;99.90;;;;;;4791178;29;20050;-72
2022/11/15 00:55:19;;;;;;;33.03;18.75;;;9.60;99.90;;;;;;4790310;30;20082;-72
2022/11/15 00:57:45;;;;;;;31.23;18.85;;;9.60;99.90;;;;;;4790842;30;20047;-72
2022/11/15 01:00:12;;;;;;;33.15;18.23;;;9.50;99.90;;;;;;4791088;30;20130;-72
2022/11/15 01:02:38;;;;;;;33.03;18.30;;;9.50;99.90;;;;;;4790898;29;20043;-72
2022/11/15 01:05:04;;;;;;;29.85;18.10;;;9.30;99.90;;;;;;4792038;29;20055;-72
2022/11/15 01:07:30;;;;;;;34.08;18.58;;;9.50;99.90;;;;;;4794641;29;20100;-72
2022/11/15 01:09:55;;;;;;;36.28;19.70;;;9.50;99.90;;;;;;4794414;29;20387;-72
2022/11/15 01:12:21;;;;;;;32.45;17.75;;;9.70;99.90;;;;;;4794692;30;20047;-72
2022/11/15 01:14:47;;;;;;;31.75;17.80;;;9.70;99.90;;;;;;4794460;30;20055;-72
2022/11/15 01:17:12;;;;;;;32.80;17.73;;;9.40;99.90;;;;;;4794029;30;20043;-72
2022/11/15 01:19:38;;;;;;;33.85;18.83;;;9.60;99.90;;;;;;4794026;30;20047;-72
2022/11/15 01:22:04;;;;;;;35.03;18.73;;;9.40;99.90;;;;;;4794099;30;20042;-72
2022/11/15 01:24:29;;;;;;;35.22;17.70;;;9.40;99.90;;;;;;4794030;30;20054;-71
2022/11/15 01:26:55;;;;;;;31.40;18.02;;;9.40;99.90;;;;;;4793779;29;20522;-72
2022/11/15 01:29:21;;;;;;;32.80;18.48;;;9.40;99.90;;;;;;4794043;30;20058;-72
2022/11/15 01:31:46;;;;;;;32.10;18.05;;;9.20;99.90;;;;;;4793799;30;20040;-72
2022/11/15 01:34:12;;;;;;;36.78;20.90;;;9.30;99.90;;;;;;4794213;29;20096;-72
2022/11/15 01:36:38;;;;;;;37.33;19.88;;;9.40;99.90;;;;;;4793810;30;20047;-72
2022/11/15 01:39:03;;;;;;;35.83;19.83;;;9.10;99.90;;;;;;4793892;30;20051;-72
2022/11/15 01:41:32;;;;;;;48.13;21.58;;;9.00;99.90;;;;;;4793899;30;20054;-72
2022/11/15 01:44:36;;;;;;;34.47;19.25;;;8.90;99.90;;;;;;4793703;30;20087;-72
2022/11/15 01:47:19;;;;;;;39.38;20.52;;;8.80;99.90;;;;;;4794087;29;20120;-72
2022/11/15 01:50:04;;;;;;;37.85;18.95;;;8.90;99.90;;;;;;4793472;29;20129;-72
2022/11/15 01:52:33;;;;;;;37.15;19.73;;;8.90;99.90;;;;;;4793772;29;20054;-72
2022/11/15 01:55:07;;;;;;;40.42;21.23;;;8.90;99.90;;;;;;4793844;29;20047;-72
2022/11/15 01:57:34;;;;;;;35.13;18.88;;;9.10;99.90;;;;;;4793649;30;20054;-72
2022/11/15 02:00:02;;;;;;;37.25;19.65;;;9.10;99.90;;;;;;4793859;30;20086;-72
2022/11/15 02:02:28;;;;;;;35.28;19.00;;;9.10;99.90;;;;;;4793542;29;20441;-72
2022/11/15 02:04:54;;;;;;;35.67;18.58;;;8.90;99.90;;;;;;4793641;29;20043;-72
2022/11/15 02:07:21;;;;;;;33.40;18.20;;;8.80;99.90;;;;;;4792304;30;20051;-72
2022/11/15 02:09:47;;;;;;;35.00;17.50;;;8.70;99.90;;;;;;4793451;29;20051;-73
2022/11/15 02:12:17;;;;;;;37.40;19.58;;;8.80;99.90;;;;;;4793249;30;20532;-72
2022/11/15 02:14:46;;;;;;;35.08;18.20;;;8.80;99.90;;;;;;4793417;29;20051;-72
2022/11/15 02:17:27;;;;;;;36.63;18.95;;;8.80;99.90;;;;;;4792135;29;20431;-72
2022/11/15 02:20:11;;;;;;;34.42;18.75;;;8.90;99.90;;;;;;4793006;30;20054;-72
2022/11/15 02:22:57;;;;;;;35.85;17.60;;;9.10;99.90;;;;;;4792426;30;20127;-72
2022/11/15 02:25:47;;;;;;;38.97;18.58;;;8.90;99.90;;;;;;4793027;30;20048;-72
2022/11/15 02:28:50;;;;;;;35.67;18.85;;;8.90;99.90;;;;;;4792056;30;20070;-72
2022/11/15 02:31:36;;;;;;;39.85;19.17;;;9.00;99.90;;;;;;4793215;29;20085;-72
2022/11/15 02:34:02;;;;;;;;;;;9.20;99.90;;;;;;4792485;30;20051;-72
2022/11/15 02:36:36;;;;;;;43.70;19.33;;;9.00;99.90;;;;;;4792942;30;19921;-72
2022/11/15 02:39:01;;;;;;;43.30;19.15;;;9.00;99.90;;;;;;4793148;29;20134;-72
2022/11/15 02:41:35;;;;;;;40.38;19.55;;;9.10;99.90;;;;;;4793138;29;20130;-72
2022/11/15 02:44:11;;;;;;;42.65;20.17;;;9.20;99.90;;;;;;4793137;29;20077;-72
2022/11/15 02:49:31;;;;;;;41.72;20.00;;;9.40;99.90;;;;;;4792597;29;20341;-72
2022/11/15 02:51:56;;;;;;;45.53;20.98;;;9.40;99.90;;;;;;4792973;29;20072;-72
2022/11/15 02:54:33;;;;;;;42.75;20.13;;;9.30;99.90;;;;;;4792602;30;20043;-72
2022/11/15 02:57:13;;;;;;;47.58;21.77;;;9.20;99.90;;;;;;4792677;29;20043;-72
2022/11/15 02:59:51;;;;;;;41.55;20.75;;;9.30;99.90;;;;;;4792661;30;20050;-72
2022/11/15 03:02:40;;;;;;;42.53;20.60;;;9.30;99.90;;;;;;4792634;30;20129;-78
2022/11/15 03:05:43;;;;;;;40.35;18.63;;;9.40;99.90;;;;;;4792547;30;20043;-72
2022/11/15 03:08:37;;;;;;;42.70;20.63;;;9.40;99.90;;;;;;4792401;29;20127;-73
2022/11/15 03:11:15;;;;;;;43.70;20.65;;;9.40;99.90;;;;;;4792366;30;20494;-72
2022/11/15 03:14:10;;;;;;;43.70;19.55;;;9.40;99.90;;;;;;4792377;29;20043;-72
2022/11/15 03:16:45;;;;;;;43.22;20.23;;;9.40;99.90;;;;;;4784063;30;20059;-72
2022/11/15 03:19:26;;;;;;;40.75;19.52;;;9.50;99.90;;;;;;4792019;29;20347;-72
2022/11/15 03:21:54;;;;;;;46.28;22.30;;;9.30;99.90;;;;;;4792125;29;20047;-72
2022/11/15 03:24:22;;;;;;;41.65;20.10;;;9.30;99.90;;;;;;4792139;29;20055;-73
2022/11/15 03:26:49;;;;;;;45.00;20.83;;;9.60;99.90;;;;;;4791881;29;20061;-72
2022/11/15 03:29:22;;;;;;;41.92;19.10;;;9.50;99.90;;;;;;4791467;29;20130;-72
2022/11/15 03:31:55;;;;;;;42.75;19.83;;;9.70;99.90;;;;;;4792113;29;20411;-72
2022/11/15 03:34:33;;;;;;;41.72;19.58;;;9.70;99.90;;;;;;4791977;29;20051;-72
2022/11/15 03:36:59;;;;;;;41.58;19.45;;;9.60;99.90;;;;;;4791790;30;20047;-72
2022/11/15 03:39:26;;;;;;;40.90;18.92;;;9.70;99.90;;;;;;4791582;30;20054;-72
2022/11/15 03:42:15;;;;;;;44.92;19.60;;;9.70;99.90;;;;;;4791475;30;20422;-72
2022/11/15 03:44:53;;;;;;;36.50;19.08;;;9.60;99.90;;;;;;4790780;30;20126;-72
2022/11/15 03:47:49;;;;;;;42.42;18.38;;;9.60;99.90;;;;;;4791721;30;20047;-72
2022/11/15 03:50:18;;;;;;;40.00;18.42;;;9.40;99.90;;;;;;4791857;30;20065;-73
2022/11/15 03:52:46;;;;;;;43.20;19.20;;;9.60;99.90;;;;;;4790875;30;20384;-72
2022/11/15 03:55:16;;;;;;;40.47;17.92;;;9.70;99.90;;;;;;4791773;29;20047;-72
2022/11/15 03:57:42;;;;;;;48.70;20.92;;;9.90;99.90;;;;;;4791733;29;20126;-73
2022/11/15 04:00:08;;;;;;;42.10;20.10;;;9.90;99.90;;;;;;4791778;29;20122;-72
2022/11/15 04:02:34;;;;;;;51.17;21.75;;;9.80;99.90;;;;;;4790492;30;20333;-72
2022/11/15 04:05:00;;;;;;;42.83;20.38;;;9.80;99.90;;;;;;4791324;30;20058;-72
2022/11/15 04:07:25;;;;;;;55.55;22.67;;;9.70;99.90;;;;;;4791400;30;20126;-72
2022/11/15 04:10:03;;;;;;;51.50;22.85;;;9.80;99.90;;;;;;4791063;29;20048;-72
2022/11/15 04:12:30;;;;;;;48.97;20.25;;;9.90;99.90;;;;;;4791239;30;20043;-72
2022/11/15 04:15:08;;;;;;;51.92;21.88;;;9.80;99.90;;;;;;4791660;29;20403;-72
2022/11/15 04:17:51;;;;;;;48.97;20.58;;;9.90;99.90;;;;;;4791335;29;20043;-72
2022/11/15 04:26:16;;;;;;;53.38;22.25;;;10.20;99.90;;;;;;4790182;30;20455;-73
2022/11/15 04:31:27;;;;;;;73.88;25.80;;;10.40;99.90;;;;;;4791424;29;20059;-73
2022/11/15 04:33:53;;;;;;;53.33;23.10;;;10.40;99.90;;;;;;4791309;29;20051;-73
2022/11/15 04:39:04;;;;;;;50.60;21.80;;;10.50;99.90;;;;;;4791219;29;20058;-72
2022/11/15 04:41:30;;;;;;;52.63;21.50;;;10.40;99.90;;;;;;4793264;30;20134;-73
2022/11/15 04:43:56;;;;;;;56.85;22.90;;;10.40;99.90;;;;;;4794008;30;20047;-73
2022/11/15 04:46:23;;;;;;;59.85;23.67;;;10.40;99.90;;;;;;4794973;29;20043;-73
2022/11/15 04:48:49;;;;;;;64.13;25.38;;;10.40;99.90;;;;;;4794415;30;20058;-72
2022/11/15 04:51:15;;;;;;;60.70;23.55;;;10.30;99.90;;;;;;4794803;29;20125;-73
2022/11/15 04:53:41;;;;;;;81.47;27.98;;;10.20;99.90;;;;;;4794939;30;20135;-72
2022/11/15 04:56:07;;;;;;;61.47;25.42;;;10.30;99.90;;;;;;4794532;29;20047;-73
2022/11/15 04:58:32;;;;;;;58.38;25.38;;;10.20;99.90;;;;;;4794675;29;20051;-73
2022/11/15 05:00:58;;;;;;;76.32;29.48;;;10.20;99.90;;;;;;4794697;29;20050;-72
2022/11/15 05:06:08;;;;;;;70.43;27.45;;;10.30;99.90;;;;;;4775933;30;20056;-75
2022/11/15 05:08:34;;;;;;;71.88;28.95;;;10.30;99.90;;;;;;4775389;30;20043;-73
2022/11/15 05:10:59;;;;;;;100.15;34.03;;;10.30;99.90;;;;;;4776254;30;20133;-72
2022/11/15 05:13:25;;;;;;;74.50;29.50;;;10.30;99.90;;;;;;4776692;30;20335;-73
2022/11/15 05:15:50;;;;;;;67.88;28.05;;;10.20;99.90;;;;;;4790267;30;20068;-72
2022/11/15 05:18:16;;;;;;;66.82;27.25;;;10.30;99.90;;;;;;4776272;30;20118;-72
2022/11/15 05:20:42;;;;;;;75.07;29.23;;;10.40;99.90;;;;;;4776314;30;20040;-73
2022/11/15 05:23:07;;;;;;;91.70;33.00;;;10.50;99.90;;;;;;4776365;30;20043;-74
2022/11/15 05:25:33;;;;;;;107.38;34.60;;;10.40;99.90;;;;;;4776041;30;20090;-72
2022/11/15 05:27:59;;;;;;;102.95;33.40;;;10.40;99.90;;;;;;4775015;30;20099;-72
2022/11/15 05:30:24;;;;;;;76.35;30.63;;;10.30;99.90;;;;;;4776263;30;20048;-73
2022/11/15 05:32:50;;;;;;;71.03;29.92;;;10.30;99.90;;;;;;4776300;30;20047;-73
2022/11/15 05:35:29;;;;;;;65.60;29.00;;;10.30;99.90;;;;;;4776253;30;20427;-72
2022/11/15 05:37:55;;;;;;;93.05;31.88;;;10.40;99.90;;;;;;4775837;30;20047;-73
2022/11/15 05:40:20;;;;;;;118.05;36.35;;;10.50;99.90;;;;;;4774941;30;20056;-72
2022/11/15 05:42:47;;;;;;;85.13;33.47;;;10.60;99.90;;;;;;4774790;30;20051;-73
2022/11/15 05:45:13;;;;;;;89.65;34.10;;;10.60;99.90;;;;;;4775887;30;20422;-73
2022/11/15 05:47:40;;;;;;;122.43;37.90;;;10.60;99.90;;;;;;4776108;30;20097;-72
2022/11/15 05:50:06;;;;;;;132.23;39.05;;;10.60;99.90;;;;;;4775373;30;20342;-73
2022/11/15 05:52:36;;;;;;;136.70;38.78;;;10.60;99.90;;;;;;4774590;30;20434;-72
2022/11/15 05:55:04;;;;;;;102.90;37.10;;;10.80;99.90;;;;;;4774660;30;20052;-72
2022/11/15 05:57:30;;;;;;;98.20;36.35;;;10.70;99.90;;;;;;4775843;30;20052;-72
2022/11/15 05:59:56;;;;;;;97.10;34.97;;;10.70;99.90;;;;;;4775682;30;20465;-72
2022/11/15 06:02:21;;;;;;;108.47;38.33;;;10.80;99.90;;;;;;4775828;30;20044;-72
2022/11/15 06:04:47;;;;;;;92.78;36.80;;;10.80;99.90;;;;;;4775409;30;20055;-72
2022/11/15 06:07:13;;;;;;;84.15;34.63;;;10.80;99.90;;;;;;4789849;30;20095;-72
2022/11/15 06:09:38;;;;;;;87.10;35.45;;;10.80;99.90;;;;;;4775445;30;20334;-72
2022/11/15 06:12:04;;;;;;;106.32;36.72;;;10.80;99.90;;;;;;4775446;30;20054;-73
2022/11/15 06:14:30;;;;;;;93.65;37.00;;;10.90;99.90;;;;;;4774787;30;20167;-73
2022/11/15 06:16:55;;;;;;;87.68;36.42;;;10.80;99.90;;;;;;4775315;30;20499;-73
2022/11/15 06:19:21;;;;;;;90.28;37.00;;;10.80;99.90;;;;;;4775402;30;20086;-72
2022/11/15 06:21:47;;;;;;;84.82;35.50;;;10.90;99.90;;;;;;4775212;30;20337;-72
2022/11/15 06:24:12;;;;;;;97.93;37.33;;;10.80;99.90;;;;;;4775334;30;20083;-72
2022/11/15 06:26:38;;;;;;;83.45;35.45;;;10.90;99.90;;;;;;4774973;30;20134;-72
2022/11/15 06:29:04;;;;;;;100.30;37.92;;;10.90;99.90;;;;;;4775386;30;20052;-72
2022/11/15 06:31:30;;;;;;;74.80;35.63;;;10.90;99.90;;;;;;4775178;30;20406;-72
2022/11/15 06:33:56;;;;;;;74.45;34.92;;;10.90;99.90;;;;;;4775305;30;20083;-72
2022/11/15 06:36:22;;;;;;;85.47;36.47;;;10.90;99.90;;;;;;4774906;30;20064;-73
2022/11/15 06:38:47;;;;;;;96.63;38.08;;;10.90;99.90;;;;;;4775191;30;20124;-72
2022/11/15 06:41:14;;;;;;;92.68;36.45;;;10.90;99.90;;;;;;4774907;30;20185;-72
2022/11/15 06:43:40;;;;;;;95.97;35.45;;;10.90;99.90;;;;;;4775138;30;20043;-72
2022/11/15 06:46:07;;;;;;;100.30;38.22;;;10.90;99.90;;;;;;4775299;30;20085;-72
2022/11/15 06:48:33;;;;;;;77.55;34.78;;;11.00;99.90;;;;;;4774628;30;20039;-72
2022/11/15 06:51:00;;;;;;;96.65;37.70;;;10.90;99.90;;;;;;4775031;30;20052;-72
2022/11/15 06:53:27;;;;;;;112.03;40.20;;;11.10;99.90;;;;;;4774735;30;20092;-72
2022/11/15 06:55:53;;;;;;;94.30;37.45;;;11.10;99.90;;;;;;4773744;30;20130;-72
2022/11/15 06:58:20;;;;;;;91.35;36.95;;;11.10;99.90;;;;;;4774816;30;20052;-72
2022/11/15 07:00:46;;;;;;;92.78;36.72;;;11.10;99.90;;;;;;4774814;30;20047;-72
2022/11/15 07:03:12;;;;;;;92.07;36.80;;;11.10;99.90;;;;;;4773896;30;20430;-72
2022/11/15 07:05:37;;;;;;;85.80;36.83;;;11.10;99.90;;;;;;4773711;30;20077;-73
2022/11/15 07:08:04;;;;;;;82.32;34.97;;;11.10;99.90;;;;;;4774575;30;20054;-72
2022/11/15 07:10:30;;;;;;;99.30;38.25;;;11.20;99.90;;;;;;4774331;30;20539;-72
2022/11/15 07:12:56;;;;;;;119.00;40.63;;;11.30;99.90;;;;;;4773540;30;20044;-72
2022/11/15 07:15:25;;;;;;;123.00;40.72;;;11.30;99.90;;;;;;4773265;30;20043;-72
2022/11/15 07:17:51;;;;;;;113.00;39.47;;;11.30;99.90;;;;;;4774454;30;20051;-74
2022/11/15 07:20:17;;;;;;;94.43;35.95;;;11.40;99.90;;;;;;4773849;30;20056;-72
2022/11/15 07:22:45;;;;;;;81.35;34.60;;;11.40;99.90;;;;;;4774828;30;20346;-72
2022/11/15 07:25:11;;;;;;;80.13;34.22;;;11.40;99.90;;;;;;4774262;30;20097;-72
2022/11/15 07:27:37;;;;;;;76.80;33.90;;;11.30;99.90;;;;;;4773936;30;20059;-72
2022/11/15 07:30:04;;;;;;;98.90;36.03;;;11.40;99.90;;;;;;4774401;30;20060;-72
2022/11/15 07:32:29;;;;;;;81.22;33.45;;;11.50;99.90;;;;;;4774004;30;20193;-73
2022/11/15 07:34:55;;;;;;;87.38;36.22;;;11.60;99.90;;;;;;4774080;30;20126;-73
2022/11/15 07:37:20;;;;;;;105.35;38.75;;;11.50;99.90;;;;;;4772999;30;20063;-72
2022/11/15 07:39:46;;;;;;;89.65;35.15;;;11.40;99.90;;;;;;4774158;30;20052;-72
2022/11/15 07:44:56;;;;;;;84.00;35.75;;;11.60;99.90;;;;;;4785121;30;20040;-72
2022/11/15 07:47:22;;;;;;;93.85;35.50;;;11.60;99.90;;;;;;4781259;29;20382;-72
2022/11/15 07:49:47;;;;;;;74.10;33.05;;;11.70;99.90;;;;;;4783249;30;20470;-72
2022/11/15 07:52:13;;;;;;;104.47;39.00;;;11.60;99.90;;;;;;4779245;29;20422;-73
2022/11/15 07:54:39;;;;;;;76.45;33.92;;;11.70;99.90;;;;;;4782983;30;20131;-72
2022/11/15 07:57:06;;;;;;;85.70;34.30;;;11.60;99.90;;;;;;4783648;29;20125;-73
2022/11/15 07:59:32;;;;;;;80.05;33.88;;;11.70;99.90;;;;;;4779556;30;20039;-72
2022/11/15 08:01:58;;;;;;;82.82;35.63;;;11.70;99.90;;;;;;4778223;30;20035;-72
2022/11/15 08:04:24;;;;;;;64.70;31.08;;;11.80;99.90;;;;;;4773875;30;20427;-72
2022/11/15 08:06:49;;;;;;;83.75;33.22;;;11.80;99.90;;;;;;4773688;30;20368;-72
2022/11/15 08:09:15;;;;;;;78.03;32.95;;;11.90;99.90;;;;;;4772712;30;20101;-72
2022/11/15 08:11:41;;;;;;;75.22;32.45;;;11.70;99.90;;;;;;4773582;30;20047;-72
2022/11/15 08:14:06;;;;;;;71.40;33.13;;;11.80;99.90;;;;;;4773516;30;20057;-72
2022/11/15 08:16:32;;;;;;;62.17;30.83;;;11.70;99.90;;;;;;4773224;30;20047;-72
2022/11/15 08:18:57;;;;;;;59.80;31.23;;;11.70;99.90;;;;;;4772110;30;20087;-72
2022/11/15 08:21:23;;;;;;;61.88;30.88;;;11.70;99.90;;;;;;4773651;30;20043;-72
2022/11/15 08:23:49;;;;;;;56.45;27.95;;;11.70;99.90;;;;;;4787284;30;20055;-72
2022/11/15 08:26:15;;;;;;;60.88;28.60;;;11.90;99.90;;;;;;4773410;30;20052;-72
2022/11/15 08:28:41;;;;;;;59.55;29.65;;;11.90;99.90;;;;;;4773583;30;20052;-72
2022/11/15 08:31:12;;;;;;;64.20;28.55;;;12.00;99.90;;;;;;4773582;30;20104;-72
2022/11/15 08:33:38;;;;;;;64.68;29.90;;;12.10;99.90;;;;;;4773412;30;20079;-70
2022/11/15 08:36:04;;;;;;;49.90;26.83;;;12.00;99.90;;;;;;4773455;30;20132;-71
2022/11/15 08:38:30;;;;;;;45.80;26.23;;;12.10;99.90;;;;;;4773230;30;20051;-71
2022/11/15 08:41:01;;;;;;;47.72;25.90;;;12.00;99.90;;;;;;4773337;30;20052;-71
2022/11/15 08:43:27;;;;;;;52.58;26.08;;;12.10;99.90;;;;;;4773310;30;20043;-71
2022/11/15 08:45:56;;;;;;;49.08;26.45;;;12.00;99.90;;;;;;4772393;30;20047;-70
2022/11/15 08:48:22;;;;;;;49.30;26.30;;;12.00;99.90;;;;;;4773080;30;20044;-70
2022/11/15 08:50:47;;;;;;;50.05;25.33;;;12.00;99.90;;;;;;4773150;30;20044;-70
2022/11/15 08:53:13;;;;;;;46.67;25.23;;;12.20;99.90;;;;;;4772123;30;20051;-70
2022/11/15 08:55:40;;;;;;;45.03;26.73;;;12.20;99.90;;;;;;4772966;30;20036;-70
2022/11/15 08:58:06;;;;;;;44.17;24.05;;;12.30;99.90;;;;;;4773040;30;20123;-71
2022/11/15 09:00:33;;;;;;;49.60;26.00;;;12.20;99.90;;;;;;4773284;30;20135;-71
2022/11/15 09:02:59;;;;;;;43.20;24.70;;;12.40;99.90;;;;;;4773146;30;20406;-70
2022/11/15 09:05:25;;;;;;;41.35;23.35;;;12.50;99.90;;;;;;4771971;30;20086;-71
2022/11/15 09:07:55;;;;;;;39.22;22.02;;;12.40;99.90;;;;;;4772147;30;20079;-71
2022/11/15 09:10:21;;;;;;;40.28;22.27;;;12.30;99.90;;;;;;4773224;30;20054;-71
2022/11/15 09:12:48;;;;;;;40.58;23.52;;;12.50;99.90;;;;;;4771896;30;20473;-71
2022/11/15 09:15:15;;;;;;;38.10;22.30;;;12.50;99.90;;;;;;4773222;30;20044;-72
2022/11/15 09:17:41;;;;;;;39.80;22.55;;;12.70;99.90;;;;;;4772827;30;20043;-70
2022/11/15 09:20:07;;;;;;;36.40;22.17;;;12.60;99.90;;;;;;4771610;30;20047;-70
2022/11/15 09:22:36;;;;;;;38.38;21.75;;;12.70;99.90;;;;;;4772089;30;20095;-71
2022/11/15 09:25:02;;;;;;;37.35;20.23;;;12.70;99.90;;;;;;4771822;30;20051;-71
2022/11/15 09:27:29;;;;;;;39.20;21.40;;;12.70;99.90;;;;;;4774606;30;20059;-70
2022/11/15 09:29:55;;;;;;;36.22;21.58;;;12.80;99.90;;;;;;4774884;29;20432;-71
2022/11/15 09:32:22;;;;;;;37.92;21.60;;;12.80;99.90;;;;;;4781932;30;20058;-70
2022/11/15 09:34:48;;;;;;;38.13;22.90;;;12.90;99.90;;;;;;4792764;30;20130;-71
2022/11/15 09:37:14;;;;;;;39.28;21.23;;;13.00;99.90;;;;;;4787732;30;20185;-71
2022/11/15 09:39:39;;;;;;;36.28;22.17;;;13.00;99.90;;;;;;4790411;29;20465;-71
2022/11/15 09:42:31;;;;;;;41.05;21.25;;;12.80;99.90;;;;;;4780486;30;20056;-71
2022/11/15 09:45:21;;;;;;;40.67;20.95;;;12.70;99.90;;;;;;4793877;29;20039;-71
2022/11/15 09:48:09;;;;;;;43.72;24.25;;;13.00;99.90;;;;;;4793416;29;20051;-71
2022/11/15 09:50:53;;;;;;;38.63;20.90;;;13.10;99.90;;;;;;4776705;30;20044;-71
2022/11/15 09:53:30;;;;;;;41.20;21.27;;;13.10;99.90;;;;;;4788349;29;20047;-71
2022/11/15 09:56:02;;;;;;;32.63;20.05;;;13.00;99.90;;;;;;4775468;30;20052;-71
2022/11/15 09:58:39;;;;;;;36.03;21.08;;;13.10;99.90;;;;;;4783447;30;20041;-71
2022/11/15 10:01:19;;;;;;;38.83;21.65;;;13.10;99.90;;;;;;4791556;30;20043;-72
2022/11/15 10:03:45;;;;;;;39.30;21.42;;;13.20;99.90;;;;;;4790051;30;20353;-78
2022/11/15 10:06:24;;;;;;;41.25;21.92;;;13.10;99.90;;;;;;4790998;30;20039;-71
2022/11/15 10:08:49;;;;;;;40.72;22.73;;;13.00;99.90;;;;;;4776928;30;20500;-70
2022/11/15 10:11:25;;;;;;;34.40;19.98;;;13.10;99.90;;;;;;4793368;29;20051;-71
2022/11/15 10:13:53;;;;;;;;;;;13.20;99.90;;;;;;4808114;29;20051;-70
2022/11/15 10:16:39;;;;;;;34.85;20.30;;;13.10;99.90;;;;;;4793531;29;19948;-71
2022/11/15 10:19:20;;;;;;;29.02;18.98;;;13.00;99.90;;;;;;4793002;29;20047;-69
2022/11/15 10:22:06;;;;;;;36.47;19.90;;;13.10;99.90;;;;;;4777269;30;20054;-70
2022/11/15 10:24:40;;;;;;;34.75;19.10;;;13.10;99.90;;;;;;4791494;30;20372;-71
2022/11/15 10:27:12;;;;;;;29.38;18.30;;;13.30;99.90;;;;;;4792953;30;20059;-71
2022/11/15 10:29:43;;;;;;;34.40;19.90;;;13.30;99.90;;;;;;4793176;30;20059;-70
2022/11/15 10:32:11;;;;;;;31.35;18.88;;;13.50;99.90;;;;;;4793284;29;20335;-71
2022/11/15 10:34:37;;;;;;;30.50;19.42;;;13.50;99.90;;;;;;4792889;29;20438;-70
2022/11/15 10:37:03;;;;;;;29.40;18.90;;;13.50;99.90;;;;;;4777033;30;20096;-71
2022/11/15 10:39:29;;;;;;;35.60;20.60;;;13.50;99.90;;;;;;4791862;30;20416;-71
2022/11/15 10:41:55;;;;;;;28.85;18.05;;;13.60;99.90;;;;;;4793156;29;20127;-71
2022/11/15 10:44:26;;;;;;;30.63;18.33;;;13.50;99.90;;;;;;4793026;29;20039;-75
2022/11/15 10:46:55;;;;;;;30.13;18.48;;;13.40;99.90;;;;;;4791953;30;20047;-71
2022/11/15 10:49:30;;;;;;;28.98;18.10;;;13.30;99.90;;;;;;4792551;30;20051;-71
2022/11/15 10:52:14;;;;;;;34.78;18.95;;;13.20;99.90;;;;;;4791738;30;20047;-70
2022/11/15 10:54:47;;;;;;;32.35;19.92;;;13.10;99.90;;;;;;4792971;29;20047;-71
2022/11/15 10:57:27;;;;;;;32.80;18.85;;;13.20;99.90;;;;;;4792684;29;20039;-71
2022/11/15 10:59:59;;;;;;;33.90;20.50;;;13.20;99.90;;;;;;4792739;29;20051;-73
2022/11/15 11:02:29;;;;;;;38.17;21.60;;;13.20;99.90;;;;;;4791893;30;20082;-73
2022/11/15 11:04:55;;;;;;;34.13;20.27;;;13.20;99.90;;;;;;4792383;30;20438;-73
2022/11/15 11:07:25;;;;;;;33.40;20.70;;;13.40;99.90;;;;;;4792572;29;20108;-73
2022/11/15 11:10:19;;;;;;;29.75;17.80;;;13.40;99.90;;;;;;4791375;30;20465;-70
2022/11/15 11:12:44;;;;;;;31.73;18.08;;;13.30;99.90;;;;;;4789265;30;20113;-73
2022/11/15 11:15:15;;;;;;;30.05;17.77;;;13.30;99.90;;;;;;4791460;30;20051;-71
2022/11/15 11:18:15;;;;;;;26.13;16.83;;;13.40;99.90;;;;;;4792373;29;20055;-73
2022/11/15 11:20:58;;;;;;;40.08;20.50;;;13.50;99.90;;;;;;4792376;29;20079;-73
2022/11/15 11:23:27;;;;;;;32.08;17.75;;;13.40;99.90;;;;;;4791325;30;20059;-73
2022/11/15 11:26:25;;;;;;;23.75;17.02;;;13.30;99.90;;;;;;4792132;29;20345;-73
2022/11/15 11:29:08;;;;;;;29.90;17.40;;;13.30;99.90;;;;;;4792341;29;20051;-73
2022/11/15 11:31:43;;;;;;;30.02;17.63;;;13.30;99.90;;;;;;4792054;29;20082;-70
2022/11/15 11:34:48;;;;;;;25.40;17.50;;;13.40;99.90;;;;;;4791134;30;20083;-74
2022/11/15 11:37:27;;;;;;;27.27;18.52;;;13.70;99.90;;;;;;4791118;30;20346;-71
2022/11/15 11:40:32;;;;;;;28.80;17.60;;;14.10;99.90;;;;;;4792092;29;20047;-71
2022/11/15 11:43:21;;;;;;;27.70;16.10;;;14.40;99.90;;;;;;4791915;29;20047;-71
2022/11/15 11:46:11;;;;;;;21.88;15.02;;;14.30;99.90;;;;;;4790867;30;20051;-71
2022/11/15 11:48:58;;;;;;;23.40;15.27;;;14.10;99.90;;;;;;4791169;29;20059;-71
2022/11/15 11:51:39;;;;;;;19.60;13.93;;;14.40;99.90;;;;;;4791725;29;20152;-71
2022/11/15 11:54:33;;;;;;;20.30;13.02;;;14.80;99.90;;;;;;4790781;30;20441;-71
2022/11/15 11:57:02;;;;;;;19.85;13.05;;;15.00;99.90;;;;;;4790749;30;20126;-71
2022/11/15 11:59:42;;;;;;;17.60;12.02;;;15.00;99.90;;;;;;4791658;29;20043;-72
2022/11/15 12:02:40;;;;;;;15.48;10.52;;;14.80;99.90;;;;;;4791605;29;20100;-72
2022/11/15 12:05:22;;;;;;;13.10;8.85;;;14.50;99.90;;;;;;4791690;29;20062;-71
2022/11/15 12:07:49;;;;;;;14.10;7.85;;;14.30;99.90;;;;;;4791707;29;20109;-73
2022/11/15 12:10:19;;;;;;;12.98;8.10;;;14.60;99.90;;;;;;4790401;30;20047;-69
2022/11/15 12:13:01;;;;;;;15.80;7.90;;;14.70;99.90;;;;;;4791526;29;20055;-71
2022/11/15 12:15:39;;;;;;;11.35;7.90;;;14.70;99.90;;;;;;4790341;30;20047;-70
2022/11/15 12:18:07;;;;;;;10.98;7.43;;;14.40;99.90;;;;;;4790216;30;20082;-70
2022/11/15 12:20:37;;;;;;;14.57;8.40;;;14.20;99.90;;;;;;4790911;29;20532;-70
2022/11/15 12:23:20;;;;;;;12.93;8.13;;;14.30;99.90;;;;;;4790516;30;20089;-70
2022/11/15 12:25:58;;;;;;;15.05;7.95;;;14.40;99.90;;;;;;4791248;29;20047;-70
2022/11/15 12:28:38;;;;;;;18.25;9.63;;;14.40;99.90;;;;;;4791474;29;20057;-71
2022/11/15 12:31:12;;;;;;;16.05;7.15;;;14.30;99.90;;;;;;4791134;29;20441;-69
2022/11/15 12:33:43;;;;;;;9.98;5.88;;;14.30;99.90;;;;;;4791491;29;20039;-69
2022/11/15 12:36:21;;;;;;;10.57;5.75;;;14.30;99.90;;;;;;4790211;30;20047;-68
2022/11/15 12:38:58;;;;;;;11.32;6.70;;;14.30;99.90;;;;;;4790462;30;20050;-68
2022/11/15 12:41:30;;;;;;;9.90;5.80;;;14.30;99.90;;;;;;4790999;29;20083;-69
2022/11/15 12:43:57;;;;;;;11.25;5.90;;;14.20;99.90;;;;;;4790291;30;20140;-69
2022/11/15 12:46:22;;;;;;;11.95;6.03;;;14.10;99.90;;;;;;4790977;29;20039;-70
2022/11/15 12:48:54;;;;;;;10.00;6.78;;;14.10;99.90;;;;;;4790941;29;20059;-69
2022/11/15 12:51:23;;;;;;;11.90;5.80;;;14.20;99.90;;;;;;4791121;29;20047;-70
2022/11/15 12:53:49;;;;;;;7.85;5.05;;;14.10;99.90;;;;;;4791151;29;20410;-70
2022/11/15 12:56:14;;;;;;;12.00;5.18;;;14.10;99.90;;;;;;4791013;29;20083;-70
2022/11/15 12:58:58;;;;;;;6.90;4.32;;;14.60;99.90;;;;;;4775290;30;20087;-70
2022/11/15 13:01:33;;;;;;;11.82;4.90;;;15.10;99.90;;;;;;4792532;29;20051;-73
2022/11/15 13:04:21;;;;;;;7.22;3.90;;;15.20;99.90;;;;;;4793539;30;20100;-70
2022/11/15 13:06:51;;;;;;;7.97;4.05;;;16.00;99.90;;;;;;4794675;29;20051;-70
2022/11/15 13:09:29;;;;;;;6.13;3.42;;;16.50;99.90;;;;;;4794593;29;20043;-70